Nyk Deneb — 3EOF8 — position and weather

sailwx.info

Track history (hours):
 
Tides and Currents Weather Stations Pressure Air Temp Water Temp Dewpoint Dewpoint Depression Visibility Wind Speed Wind Dir Waves Ship Positions

Nyk Deneb

Last reported at 2016-Feb-05 11:21 UTC. Time now 2016-Feb-07 08:35 UTC.
Position N 31°54' W 117°33'.

Length 294 m; draft 11.4 m.

Type: Ship (hazmat cat B). MMSI: 355717000.

Date/timePositionNaut miles runAvg speedWind from/ knotsBaromVisibWave heightAir tempDewpointWater temp
2016-Feb-05 11:21N 31°54' W 117°33'1215.6
2016-Feb-05 10:33N 32°05' W 117°39'1514.9
2016-Feb-05 09:33N 32°20' W 117°42'1615.8
2016-Feb-05 08:33N 32°35' W 117°48'1817.7
2016-Feb-05 07:33N 32°52' W 117°54'1817.8
2016-Feb-05 06:33N 33°09' W 118°01'1414.2
2016-Feb-05 05:34N 33°22' W 118°07'1111.4
2016-Feb-05 04:34N 33°33' W 118°12'1010.4
2016-Feb-05 03:34N 33°43' W 118°15'3 2.9
2016-Feb-05 02:33N 33°46' W 118°15'0 0.0
2016-Feb-05 00:03N 33°46' W 118°15'0 0.0
2016-Feb-04 22:27N 33°46' W 118°15'0 0.0
2016-Feb-04 18:30N 33°46' W 118°15'0 0.0
2016-Feb-04 17:30N 33°46' W 118°15'0 0.0
2016-Feb-04 15:24N 33°46' W 118°15'0 0.1
2016-Feb-04 14:33N 33°46' W 118°16'6 6.1
2016-Feb-04 13:32N 33°40' W 118°14'6 5.6
2016-Feb-04 12:33N 33°36' W 118°19'8 7.7
2016-Feb-04 11:33N 33°39' W 118°27'8 8.4
2016-Feb-04 10:33N 33°44' W 118°36'8 7.7
2016-Feb-04 09:33N 33°47' W 118°44'3411.0
2016-Feb-04 06:27N 34°03' W 119°21'1613.4
2016-Feb-04 05:15N 34°08' W 119°39'1013.4
2016-Feb-04 04:29N 34°10' W 119°51'2513.1
2016-Feb-04 02:32N 34°17' W 120°21'1313.3
2016-Feb-04 01:32N 34°20' W 120°36'1312.9
2016-Feb-04 00:33N 34°24' W 120°51'1312.7
2016-Feb-03 23:33N 34°33' W 121°02'1713.4
2016-Feb-03 22:18N 34°47' W 121°14'1013.3
2016-Feb-03 21:33N 34°55' W 121°20'1413.4
2016-Feb-03 20:32N 35°08' W 121°28'105 3.1
2016-Feb-02 10:27N 36°40' W 122°29'1213.3
2016-Feb-02 09:33N 36°52' W 122°35'1313.2
2016-Feb-02 08:33N 37°04' W 122°40'1313.4
2016-Feb-02 07:33N 37°17' W 122°43'1413.7
2016-Feb-02 06:33N 37°31' W 122°44'1313.1
2016-Feb-02 05:33N 37°44' W 122°41'1312.9
2016-Feb-02 04:34N 37°50' W 122°27'8 8.1
2016-Feb-02 03:33N 37°48' W 122°17'1 1.1
2016-Feb-02 02:33N 37°48' W 122°19'0 0.0
2016-Feb-02 01:33N 37°48' W 122°19'0 0.0
2016-Feb-02 00:33N 37°48' W 122°19'0 0.0
2016-Feb-01 23:33N 37°48' W 122°19'0 0.0
2016-Feb-01 22:33N 37°48' W 122°19'0 0.0
2016-Feb-01 21:33N 37°48' W 122°19'0 0.0
2016-Feb-01 20:33N 37°48' W 122°19'0 0.0
2016-Feb-01 19:33N 37°48' W 122°19'0 0.0
2016-Feb-01 18:33N 37°48' W 122°19'0 0.0
2016-Feb-01 17:33N 37°48' W 122°19'0 0.0
2016-Feb-01 16:33N 37°48' W 122°19'0 0.0
2016-Feb-01 15:33N 37°48' W 122°19'0 0.0
2016-Feb-01 14:33N 37°48' W 122°19'0 0.0
2016-Feb-01 13:33N 37°48' W 122°19'0 0.1
2016-Feb-01 12:34N 37°48' W 122°19'1110.9
2016-Feb-01 11:33N 37°47' W 122°33'1110.8
2016-Feb-01 10:33N 37°47' W 122°46'1212.1
2016-Feb-01 09:33N 37°52' W 122°60'1212.3
2016-Feb-01 08:33N 37°59' W 123°13'1312.8
2016-Feb-01 07:34N 38°08' W 123°24'9 9.1
2016-Feb-01 06:33N 38°12' W 123°35'1313.4
2016-Feb-01 05:33N 38°20' W 123°48'1313.2
2016-Feb-01 04:33N 38°29' W 124°01'42114.3
2016-Jan-30 23:05N 45°26' W 125°19'815.5
2016-Jan-30 22:33N 45°34' W 125°19'1515.5
2016-Jan-30 21:33N 45°50' W 125°19'1515.3
2016-Jan-30 20:33N 46°05' W 125°20'1514.8
2016-Jan-30 19:34N 46°20' W 125°20'1414.4
2016-Jan-30 18:33N 46°34' W 125°21'1514.7
2016-Jan-30 17:33N 46°49' W 125°21'1515.2
2016-Jan-30 16:33N 47°04' W 125°21'8714.3
2016-Jan-30 10:25N 48°30' W 125°00'2513.3
2016-Jan-30 08:32N 48°25' W 124°23'1414.1
2016-Jan-30 07:33N 48°20' W 124°04'1514.6
2016-Jan-30 06:33N 48°16' W 123°43'1312.6
2016-Jan-30 05:33N 48°22' W 123°26'10 9.6
2016-Jan-30 04:34N 48°25' W 123°12'1818.2
2016-Jan-30 03:34N 48°43' W 123°12'1212.2
2016-Jan-30 02:34N 48°56' W 123°11'1817.6
2016-Jan-30 01:34N 49°11' W 123°22'1212.0
2016-Jan-30 00:33N 49°18' W 123°07'1 0.9
2016-Jan-29 23:32N 49°17' W 123°06'0 0.0
2016-Jan-29 22:32N 49°17' W 123°06'0 0.0
2016-Jan-29 21:32N 49°17' W 123°06'0 0.0
2016-Jan-29 20:32N 49°17' W 123°06'0 0.0
2016-Jan-29 19:32N 49°17' W 123°06'0 0.0
2016-Jan-29 18:32N 49°17' W 123°06'0 0.0
2016-Jan-29 17:32N 49°17' W 123°06'0 0.0
2016-Jan-29 16:32N 49°17' W 123°06'0 0.0
2016-Jan-29 15:32N 49°17' W 123°06'0 0.0
2016-Jan-29 14:32N 49°17' W 123°06'3 3.6
2016-Jan-29 13:34N 49°19' W 123°11'1312.6
2016-Jan-29 12:33N 49°08' W 123°20'1919.3
2016-Jan-29 11:33N 48°52' W 123°03'1515.4
2016-Jan-29 10:33N 48°39' W 123°14'1616.4
2016-Jan-29 09:33N 48°22' W 123°17'1110.9
2016-Jan-29 08:33N 48°14' W 123°26'1110.7
2016-Jan-29 07:33N 48°12' W 123°10'2020.1
2016-Jan-29 06:33N 48°08' W 122°40'2020.7
2016-Jan-29 05:34N 47°50' W 122°27'2020.5
2016-Jan-29 04:34N 47°29' W 122°25'1212.3
2016-Jan-29 03:34N 47°17' W 122°25'2 1.1
2016-Jan-29 02:08N 47°16' W 122°23'58 8.6
2016-Jan-28 19:26N 48°11' W 122°50'58 3.0
2016-Jan-28 00:11N 47°16' W 122°23'2 2.4
2016-Jan-27 23:33N 47°17' W 122°25'8 7.7
2016-Jan-27 22:33N 47°24' W 122°23'1817.8
2016-Jan-27 21:33N 47°42' W 122°28'1716.7
2016-Jan-27 20:34N 47°58' W 122°35'1514.9
2016-Jan-27 19:32N 48°10' W 122°48'1616.7
2016-Jan-27 18:33N 48°11' W 123°12'1010.3
2016-Jan-27 17:33N 48°12' W 123°28'1111.0
2016-Jan-27 16:33N 48°13' W 123°44'1211.5
2016-Jan-27 15:31N 48°16' W 124°02'1313.1
2016-Jan-27 14:33N 48°21' W 124°19'2713.5
2016-Jan-27 12:33N 48°29' W 124°58'1313.2
2016-Jan-27 11:33N 48°28' W 125°18'1313.4
2016-Jan-27 10:33N 48°29' W 125°38'1313.3
2016-Jan-27 09:33N 48°29' W 125°58'1010.0
2016-Jan-27 08:33N 48°29' W 126°13'1313.3
2016-Jan-27 07:33N 48°29' W 126°34'5613.9
2016-Jan-27 03:30N 48°29' W 127°58'  
Track history (hours):
 
Tides and Currents Weather Stations Pressure Air Temp Water Temp Dewpoint Dewpoint Depression Visibility Wind Speed Wind Dir Waves Ship Positions

Nyk Deneb

Last reported at 2016-Feb-05 11:21 UTC. Time now 2016-Feb-07 08:35 UTC.
Position N 31°54' W 117°33'.

Length 294 m; draft 11.4 m.

Type: Ship (hazmat cat B). MMSI: 355717000.

Date/timePositionNaut miles runAvg speedWind from/ knotsBaromVisibWave heightAir tempDewpointWater temp
2016-Feb-05 11:21N 31°54' W 117°33'1215.6
2016-Feb-05 10:33N 32°05' W 117°39'1514.9
2016-Feb-05 09:33N 32°20' W 117°42'1615.8
2016-Feb-05 08:33N 32°35' W 117°48'1817.7
2016-Feb-05 07:33N 32°52' W 117°54'1817.8
2016-Feb-05 06:33N 33°09' W 118°01'1414.2
2016-Feb-05 05:34N 33°22' W 118°07'1111.4
2016-Feb-05 04:34N 33°33' W 118°12'1010.4
2016-Feb-05 03:34N 33°43' W 118°15'3 2.9
2016-Feb-05 02:33N 33°46' W 118°15'0 0.0
2016-Feb-05 00:03N 33°46' W 118°15'0 0.0
2016-Feb-04 22:27N 33°46' W 118°15'0 0.0
2016-Feb-04 18:30N 33°46' W 118°15'0 0.0
2016-Feb-04 17:30N 33°46' W 118°15'0 0.0
2016-Feb-04 15:24N 33°46' W 118°15'0 0.1
2016-Feb-04 14:33N 33°46' W 118°16'6 6.1
2016-Feb-04 13:32N 33°40' W 118°14'6 5.6
2016-Feb-04 12:33N 33°36' W 118°19'8 7.7
2016-Feb-04 11:33N 33°39' W 118°27'8 8.4
2016-Feb-04 10:33N 33°44' W 118°36'8 7.7
2016-Feb-04 09:33N 33°47' W 118°44'3411.0
2016-Feb-04 06:27N 34°03' W 119°21'1613.4
2016-Feb-04 05:15N 34°08' W 119°39'1013.4
2016-Feb-04 04:29N 34°10' W 119°51'2513.1
2016-Feb-04 02:32N 34°17' W 120°21'1313.3
2016-Feb-04 01:32N 34°20' W 120°36'1312.9
2016-Feb-04 00:33N 34°24' W 120°51'1312.7
2016-Feb-03 23:33N 34°33' W 121°02'1713.4
2016-Feb-03 22:18N 34°47' W 121°14'1013.3
2016-Feb-03 21:33N 34°55' W 121°20'1413.4
2016-Feb-03 20:32N 35°08' W 121°28'105 3.1
2016-Feb-02 10:27N 36°40' W 122°29'1213.3
2016-Feb-02 09:33N 36°52' W 122°35'1313.2
2016-Feb-02 08:33N 37°04' W 122°40'1313.4
2016-Feb-02 07:33N 37°17' W 122°43'1413.7
2016-Feb-02 06:33N 37°31' W 122°44'1313.1
2016-Feb-02 05:33N 37°44' W 122°41'1312.9
2016-Feb-02 04:34N 37°50' W 122°27'8 8.1
2016-Feb-02 03:33N 37°48' W 122°17'1 1.1
2016-Feb-02 02:33N 37°48' W 122°19'0 0.0
2016-Feb-02 01:33N 37°48' W 122°19'0 0.0
2016-Feb-02 00:33N 37°48' W 122°19'0 0.0
2016-Feb-01 23:33N 37°48' W 122°19'0 0.0
2016-Feb-01 22:33N 37°48' W 122°19'0 0.0
2016-Feb-01 21:33N 37°48' W 122°19'0 0.0
2016-Feb-01 20:33N 37°48' W 122°19'0 0.0
2016-Feb-01 19:33N 37°48' W 122°19'0 0.0
2016-Feb-01 18:33N 37°48' W 122°19'0 0.0
2016-Feb-01 17:33N 37°48' W 122°19'0 0.0
2016-Feb-01 16:33N 37°48' W 122°19'0 0.0
2016-Feb-01 15:33N 37°48' W 122°19'0 0.0
2016-Feb-01 14:33N 37°48' W 122°19'0 0.0
2016-Feb-01 13:33N 37°48' W 122°19'0 0.1
2016-Feb-01 12:34N 37°48' W 122°19'1110.9
2016-Feb-01 11:33N 37°47' W 122°33'1110.8
2016-Feb-01 10:33N 37°47' W 122°46'1212.1
2016-Feb-01 09:33N 37°52' W 122°60'1212.3
2016-Feb-01 08:33N 37°59' W 123°13'1312.8
2016-Feb-01 07:34N 38°08' W 123°24'9 9.1
2016-Feb-01 06:33N 38°12' W 123°35'1313.4
2016-Feb-01 05:33N 38°20' W 123°48'1313.2
2016-Feb-01 04:33N 38°29' W 124°01'42114.3
2016-Jan-30 23:05N 45°26' W 125°19'815.5
2016-Jan-30 22:33N 45°34' W 125°19'1515.5
2016-Jan-30 21:33N 45°50' W 125°19'1515.3
2016-Jan-30 20:33N 46°05' W 125°20'1514.8
2016-Jan-30 19:34N 46°20' W 125°20'1414.4
2016-Jan-30 18:33N 46°34' W 125°21'1514.7
2016-Jan-30 17:33N 46°49' W 125°21'1515.2
2016-Jan-30 16:33N 47°04' W 125°21'8714.3
2016-Jan-30 10:25N 48°30' W 125°00'2513.3
2016-Jan-30 08:32N 48°25' W 124°23'1414.1
2016-Jan-30 07:33N 48°20' W 124°04'1514.6
2016-Jan-30 06:33N 48°16' W 123°43'1312.6
2016-Jan-30 05:33N 48°22' W 123°26'10 9.6
2016-Jan-30 04:34N 48°25' W 123°12'1818.2
2016-Jan-30 03:34N 48°43' W 123°12'1212.2
2016-Jan-30 02:34N 48°56' W 123°11'1817.6
2016-Jan-30 01:34N 49°11' W 123°22'1212.0
2016-Jan-30 00:33N 49°18' W 123°07'1 0.9
2016-Jan-29 23:32N 49°17' W 123°06'0 0.0
2016-Jan-29 22:32N 49°17' W 123°06'0 0.0
2016-Jan-29 21:32N 49°17' W 123°06'0 0.0
2016-Jan-29 20:32N 49°17' W 123°06'0 0.0
2016-Jan-29 19:32N 49°17' W 123°06'0 0.0
2016-Jan-29 18:32N 49°17' W 123°06'0 0.0
2016-Jan-29 17:32N 49°17' W 123°06'0 0.0
2016-Jan-29 16:32N 49°17' W 123°06'0 0.0
2016-Jan-29 15:32N 49°17' W 123°06'0 0.0
2016-Jan-29 14:32N 49°17' W 123°06'3 3.6
2016-Jan-29 13:34N 49°19' W 123°11'1312.6
2016-Jan-29 12:33N 49°08' W 123°20'1919.3
2016-Jan-29 11:33N 48°52' W 123°03'1515.4
2016-Jan-29 10:33N 48°39' W 123°14'1616.4
2016-Jan-29 09:33N 48°22' W 123°17'1110.9
2016-Jan-29 08:33N 48°14' W 123°26'1110.7
2016-Jan-29 07:33N 48°12' W 123°10'2020.1
2016-Jan-29 06:33N 48°08' W 122°40'2020.7
2016-Jan-29 05:34N 47°50' W 122°27'2020.5
2016-Jan-29 04:34N 47°29' W 122°25'1212.3
2016-Jan-29 03:34N 47°17' W 122°25'2 1.1
2016-Jan-29 02:08N 47°16' W 122°23'58 8.6
2016-Jan-28 19:26N 48°11' W 122°50'58 3.0
2016-Jan-28 00:11N 47°16' W 122°23'2 2.4
2016-Jan-27 23:33N 47°17' W 122°25'8 7.7
2016-Jan-27 22:33N 47°24' W 122°23'1817.8
2016-Jan-27 21:33N 47°42' W 122°28'1716.7
2016-Jan-27 20:34N 47°58' W 122°35'1514.9
2016-Jan-27 19:32N 48°10' W 122°48'1616.7
2016-Jan-27 18:33N 48°11' W 123°12'1010.3
2016-Jan-27 17:33N 48°12' W 123°28'1111.0
2016-Jan-27 16:33N 48°13' W 123°44'1211.5
2016-Jan-27 15:31N 48°16' W 124°02'1313.1
2016-Jan-27 14:33N 48°21' W 124°19'2713.5
2016-Jan-27 12:33N 48°29' W 124°58'1313.2
2016-Jan-27 11:33N 48°28' W 125°18'1313.4
2016-Jan-27 10:33N 48°29' W 125°38'1313.3
2016-Jan-27 09:33N 48°29' W 125°58'1010.0
2016-Jan-27 08:33N 48°29' W 126°13'1313.3
2016-Jan-27 07:33N 48°29' W 126°34'5613.9
2016-Jan-27 03:30N 48°29' W 127°58'  

Dump ship's entire track history